createdAt,value
2023-05-20T00:02:26.123Z,13.59
2023-05-20T00:04:54.450Z,13.66
2023-05-20T00:07:21.425Z,13.63
2023-05-20T00:09:48.270Z,13.53
2023-05-20T00:12:17.396Z,13.57
2023-05-20T00:14:46.717Z,13.50
2023-05-20T00:17:13.583Z,13.42
2023-05-20T00:19:40.639Z,13.20
2023-05-20T00:22:08.589Z,13.20
2023-05-20T00:24:37.686Z,13.46
2023-05-20T00:27:04.676Z,13.41
2023-05-20T00:29:31.701Z,13.37
2023-05-20T00:31:58.625Z,13.11
2023-05-20T00:34:25.532Z,13.10
2023-05-20T00:36:55.244Z,13.30
2023-05-20T00:39:24.383Z,13.22
2023-05-20T00:41:53.458Z,13.19
2023-05-20T00:44:24.150Z,13.24
2023-05-20T00:46:51.174Z,13.19
2023-05-20T00:49:18.516Z,13.23
2023-05-20T00:51:55.912Z,13.24
2023-05-20T00:54:22.773Z,13.14
2023-05-20T00:56:54.835Z,13.20
2023-05-20T00:59:21.759Z,13.04
2023-05-20T01:01:51.037Z,13.06
2023-05-20T01:04:18.437Z,13.05
2023-05-20T01:06:46.511Z,12.97
2023-05-20T01:09:15.821Z,12.99
2023-05-20T01:11:59.577Z,13.08
2023-05-20T01:14:30.307Z,13.00
2023-05-20T01:17:01.739Z,12.98
2023-05-20T01:19:41.184Z,13.04
2023-05-20T01:22:12.733Z,12.80
2023-05-20T01:24:42.220Z,12.82
2023-05-20T01:27:15.490Z,12.90
2023-05-20T01:29:44.330Z,12.88
2023-05-20T01:32:25.148Z,12.99
2023-05-20T01:34:55.481Z,12.68
2023-05-20T01:37:23.416Z,12.81
2023-05-20T01:39:51.428Z,12.93
2023-05-20T01:42:20.034Z,12.85
2023-05-20T01:44:48.712Z,12.82
2023-05-20T01:47:17.914Z,12.84
2023-05-20T01:49:47.921Z,12.77
2023-05-20T01:52:17.227Z,12.75
2023-05-20T01:54:51.092Z,12.80
2023-05-20T01:57:22.584Z,12.84
2023-05-20T01:59:51.182Z,12.82
2023-05-20T02:02:21.948Z,12.68
2023-05-20T02:04:50.849Z,12.55
2023-05-20T02:07:19.239Z,12.61
2023-05-20T02:09:47.479Z,12.73
2023-05-20T02:12:17.363Z,12.69
2023-05-20T02:14:45.758Z,12.73
2023-05-20T02:17:16.924Z,12.66
2023-05-20T02:19:45.600Z,12.72
2023-05-20T02:22:12.737Z,12.68
2023-05-20T02:24:43.987Z,12.67
2023-05-20T02:27:11.028Z,12.64
2023-05-20T02:29:37.895Z,12.67
2023-05-20T02:32:05.230Z,12.65
2023-05-20T02:34:32.650Z,12.69
2023-05-20T02:36:59.654Z,12.62
2023-05-20T02:39:29.110Z,12.67
2023-05-20T02:41:56.564Z,12.65
2023-05-20T02:44:23.947Z,12.59
2023-05-20T02:46:50.879Z,12.66
2023-05-20T02:49:17.773Z,12.64
2023-05-20T02:51:44.833Z,12.64
2023-05-20T02:54:16.581Z,12.62
2023-05-20T02:56:43.571Z,12.67
2023-05-20T02:59:10.415Z,12.54
2023-05-20T03:01:40.705Z,12.64
2023-05-20T03:04:08.462Z,12.62
2023-05-20T03:06:38.354Z,12.63
2023-05-20T03:09:06.020Z,12.67
2023-05-20T03:11:33.032Z,12.62
2023-05-20T03:14:02.229Z,12.60
2023-05-20T03:16:31.116Z,12.62
2023-05-20T03:19:00.112Z,12.57
2023-05-20T03:21:27.129Z,12.48
2023-05-20T03:23:54.039Z,12.64
2023-05-20T03:26:23.508Z,12.64
2023-05-20T03:28:50.874Z,12.69
2023-05-20T03:31:17.897Z,12.66
2023-05-20T03:33:46.313Z,12.60
2023-05-20T03:36:13.324Z,12.61
2023-05-20T03:38:40.251Z,12.68
2023-05-20T03:41:07.438Z,12.62
2023-05-20T03:43:34.408Z,12.61
2023-05-20T03:46:01.682Z,12.61
2023-05-20T03:48:29.074Z,12.60
2023-05-20T03:50:55.954Z,12.57
2023-05-20T03:53:22.830Z,12.55
2023-05-20T03:55:52.348Z,12.56
2023-05-20T03:58:21.058Z,12.59
2023-05-20T04:00:49.090Z,12.59
2023-05-20T04:03:20.860Z,12.51
2023-05-20T04:05:48.880Z,12.48
2023-05-20T04:08:20.138Z,12.54
2023-05-20T04:10:46.975Z,12.47
2023-05-20T04:13:14.706Z,12.45
2023-05-20T04:15:42.347Z,12.37
2023-05-20T04:18:10.581Z,12.47
2023-05-20T04:20:38.461Z,12.44
2023-05-20T04:23:05.366Z,12.32
2023-05-20T04:25:32.504Z,12.43
2023-05-20T04:28:00.370Z,12.40
2023-05-20T04:30:30.367Z,12.38
2023-05-20T04:32:57.570Z,12.29
2023-05-20T04:35:26.397Z,12.39
2023-05-20T04:37:56.502Z,12.41
2023-05-20T04:40:23.561Z,12.37
2023-05-20T04:42:51.265Z,12.34
2023-05-20T04:45:18.993Z,12.35
2023-05-20T04:47:46.181Z,12.35
2023-05-20T04:50:14.946Z,12.31
2023-05-20T04:52:43.144Z,12.31
2023-05-20T04:55:11.239Z,12.33
2023-05-20T04:57:42.604Z,12.36
2023-05-20T05:00:11.393Z,12.39
2023-05-20T05:02:39.219Z,12.36
2023-05-20T05:05:06.865Z,12.36
2023-05-20T05:07:34.010Z,12.42
2023-05-20T05:10:05.569Z,12.20
2023-05-20T05:12:35.015Z,12.36
2023-05-20T05:15:03.611Z,12.34
2023-05-20T05:17:30.685Z,12.39
2023-05-20T05:19:58.354Z,12.41
2023-05-20T05:22:27.051Z,12.38
2023-05-20T05:24:56.594Z,12.35
2023-05-20T05:27:25.872Z,12.38
2023-05-20T05:29:52.677Z,12.39
2023-05-20T05:32:20.584Z,12.37
2023-05-20T05:34:52.286Z,12.37
2023-05-20T05:37:21.836Z,12.40
2023-05-20T05:39:49.042Z,12.37
2023-05-20T05:42:15.982Z,12.36
2023-05-20T05:44:45.285Z,12.41
2023-05-20T05:47:12.363Z,12.41
2023-05-20T05:49:39.635Z,12.36
2023-05-20T05:52:07.178Z,12.38
2023-05-20T05:54:36.818Z,12.40
2023-05-20T05:57:06.400Z,12.42
2023-05-20T05:59:35.017Z,12.43
2023-05-20T06:02:05.101Z,12.36
2023-05-20T06:04:32.459Z,12.43
2023-05-20T06:06:59.587Z,12.43
2023-05-20T06:09:26.685Z,12.43
2023-05-20T06:11:53.932Z,12.51
2023-05-20T06:14:21.394Z,12.53
2023-05-20T06:16:48.706Z,12.47
2023-05-20T06:19:15.848Z,12.54
2023-05-20T06:21:42.915Z,12.49
2023-05-20T06:24:09.791Z,12.51
2023-05-20T06:26:38.943Z,12.52
2023-05-20T06:29:06.169Z,12.58
2023-05-20T06:31:33.840Z,12.58
2023-05-20T06:34:00.804Z,12.58
2023-05-20T06:36:27.645Z,12.64
2023-05-20T06:38:54.614Z,12.46
2023-05-20T06:41:24.559Z,12.63
2023-05-20T06:43:54.251Z,12.64
2023-05-20T06:46:49.942Z,12.70
2023-05-20T06:49:16.893Z,12.58
2023-05-20T06:51:44.499Z,12.78
2023-05-20T06:54:11.447Z,12.76
2023-05-20T06:56:40.799Z,12.81
2023-05-20T06:59:08.180Z,12.82
2023-05-20T07:01:35.931Z,12.75
2023-05-20T07:04:04.127Z,12.87
2023-05-20T07:06:33.673Z,12.84
2023-05-20T07:09:01.162Z,12.86
2023-05-20T07:11:30.234Z,12.83
2023-05-20T07:13:57.152Z,12.84
2023-05-20T07:16:25.666Z,12.93
2023-05-20T07:18:57.732Z,12.96
2023-05-20T07:21:24.959Z,12.95
2023-05-20T07:24:02.316Z,12.97
2023-05-20T07:26:36.551Z,12.92
2023-05-20T07:29:07.354Z,13.03
2023-05-20T07:31:34.220Z,13.03
2023-05-20T07:34:01.289Z,13.04
2023-05-20T07:36:29.185Z,13.16
2023-05-20T07:39:03.898Z,13.11
2023-05-20T07:41:34.995Z,13.20
2023-05-20T07:44:05.646Z,13.30
2023-05-20T07:46:35.125Z,13.31
2023-05-20T07:49:03.620Z,13.34
2023-05-20T07:51:31.970Z,13.42
2023-05-20T07:53:59.371Z,13.47
2023-05-20T07:56:26.694Z,13.54
2023-05-20T07:58:56.007Z,13.61
2023-05-20T08:01:26.228Z,13.64
2023-05-20T08:03:54.486Z,13.71
2023-05-20T08:06:28.757Z,13.72
2023-05-20T08:08:56.940Z,13.74
2023-05-20T08:11:29.168Z,13.82
2023-05-20T08:13:56.783Z,13.84
2023-05-20T08:16:27.061Z,13.92
2023-05-20T08:18:54.947Z,14.01
2023-05-20T08:21:21.923Z,14.01
2023-05-20T08:23:48.830Z,14.08
2023-05-20T08:26:15.881Z,14.22
2023-05-20T08:28:43.346Z,14.21
2023-05-20T08:31:11.034Z,14.32
2023-05-20T08:33:37.986Z,14.40
2023-05-20T08:36:05.517Z,14.53
2023-05-20T08:38:32.793Z,14.55
2023-05-20T08:41:03.870Z,14.67
2023-05-20T08:43:32.867Z,14.68
2023-05-20T08:46:05.466Z,14.82
2023-05-20T08:48:35.867Z,14.90
2023-05-20T08:51:10.013Z,14.95
2023-05-20T08:53:37.439Z,15.07
2023-05-20T08:56:06.716Z,15.13
2023-05-20T08:58:33.597Z,15.19
2023-05-20T09:01:03.353Z,15.22
2023-05-20T09:03:30.684Z,15.31
2023-05-20T09:06:12.981Z,15.42
2023-05-20T09:08:39.884Z,15.49
2023-05-20T09:11:09.772Z,15.53
2023-05-20T09:13:36.607Z,15.56
2023-05-20T09:16:06.026Z,15.61
2023-05-20T09:18:41.067Z,15.76
2023-05-20T09:21:10.371Z,15.86
2023-05-20T09:23:38.718Z,15.93
2023-05-20T09:26:05.884Z,16.01
2023-05-20T09:28:32.736Z,16.10
2023-05-20T09:31:00.340Z,16.13
2023-05-20T09:33:32.458Z,16.25
2023-05-20T09:36:04.853Z,16.37
2023-05-20T09:38:39.951Z,16.37
2023-05-20T09:41:16.054Z,16.55
2023-05-20T09:43:43.123Z,16.56
2023-05-20T09:46:11.038Z,16.68
2023-05-20T09:48:38.286Z,16.68
2023-05-20T09:51:06.350Z,16.80
2023-05-20T09:53:34.076Z,16.86
2023-05-20T09:56:03.374Z,16.93
2023-05-20T09:58:35.241Z,17.01
2023-05-20T10:01:09.221Z,17.07
2023-05-20T10:03:39.268Z,17.03
2023-05-20T10:06:37.015Z,17.17
2023-05-20T10:09:39.740Z,17.23
2023-05-20T10:12:24.541Z,17.29
2023-05-20T10:15:11.122Z,17.29
2023-05-20T10:17:54.133Z,17.37
2023-05-20T10:20:21.400Z,17.41
2023-05-20T10:22:57.732Z,17.37
2023-05-20T10:25:28.720Z,17.46
2023-05-20T10:28:11.980Z,17.48
2023-05-20T10:30:49.924Z,17.49
2023-05-20T10:33:21.107Z,17.56
2023-05-20T10:35:54.760Z,17.64
2023-05-20T10:38:26.600Z,17.67
2023-05-20T10:40:59.981Z,17.81
2023-05-20T10:43:32.849Z,17.91
2023-05-20T10:46:03.260Z,18.00
2023-05-20T10:48:35.240Z,18.12
2023-05-20T10:51:11.431Z,18.21
2023-05-20T10:53:48.914Z,18.31
2023-05-20T10:56:24.687Z,18.41
2023-05-20T10:58:53.216Z,18.50
2023-05-20T11:01:31.969Z,18.61
2023-05-20T11:04:01.004Z,18.65
2023-05-20T11:06:29.100Z,18.76
2023-05-20T11:09:09.233Z,18.85
2023-05-20T11:11:38.905Z,18.96
2023-05-20T11:14:05.786Z,19.05
2023-05-20T11:16:37.866Z,19.12
2023-05-20T11:19:14.761Z,19.22
2023-05-20T11:21:48.547Z,19.32
2023-05-20T11:24:31.371Z,19.40
2023-05-20T11:27:02.451Z,19.45
2023-05-20T11:29:34.084Z,19.48
2023-05-20T11:32:04.483Z,19.52
2023-05-20T11:34:38.295Z,19.58
2023-05-20T11:37:15.826Z,19.63
2023-05-20T11:39:44.882Z,19.69
2023-05-20T11:42:19.801Z,19.77
2023-05-20T11:44:49.345Z,19.92
2023-05-20T11:47:27.828Z,20.00
2023-05-20T11:49:56.742Z,20.09
2023-05-20T11:52:31.513Z,20.18
2023-05-20T11:55:00.726Z,20.25
2023-05-20T11:57:27.574Z,20.36
2023-05-20T11:59:56.690Z,20.45
2023-05-20T12:02:26.311Z,20.59
2023-05-20T12:04:58.456Z,20.70
2023-05-20T12:07:28.607Z,20.77
2023-05-20T12:09:58.028Z,20.87
2023-05-20T12:12:31.843Z,20.89
2023-05-20T12:15:06.511Z,20.93
2023-05-20T12:17:49.188Z,21.02
2023-05-20T12:20:22.408Z,21.10
2023-05-20T12:22:53.743Z,21.12
2023-05-20T12:25:28.082Z,21.21
2023-05-20T12:28:02.142Z,21.23
2023-05-20T12:30:31.512Z,21.26
2023-05-20T12:33:03.577Z,21.32
2023-05-20T12:35:46.955Z,21.37
2023-05-20T12:38:18.524Z,21.41
2023-05-20T12:40:47.742Z,21.44
2023-05-20T12:43:16.900Z,21.52
2023-05-20T12:45:45.988Z,21.56
2023-05-20T12:48:15.018Z,21.56
2023-05-20T12:50:46.478Z,21.65
2023-05-20T12:53:13.398Z,21.70
2023-05-20T12:55:42.603Z,21.71
2023-05-20T12:58:16.684Z,21.73
2023-05-20T13:00:48.277Z,21.75
2023-05-20T13:03:17.721Z,21.77
2023-05-20T13:05:44.711Z,21.80
2023-05-20T13:08:15.008Z,21.81
2023-05-20T13:10:46.996Z,21.87
2023-05-20T13:13:21.712Z,21.88
2023-05-20T13:15:51.518Z,21.89
2023-05-20T13:18:20.920Z,21.93
2023-05-20T13:20:52.695Z,21.93
2023-05-20T13:23:19.553Z,21.95
2023-05-20T13:25:53.572Z,21.95
2023-05-20T13:28:23.222Z,21.98
2023-05-20T13:30:56.764Z,21.97
2023-05-20T13:33:24.443Z,22.01
2023-05-20T13:35:53.745Z,22.05
2023-05-20T13:38:25.404Z,22.08
2023-05-20T13:40:59.421Z,22.08
2023-05-20T13:43:34.387Z,22.10
2023-05-20T13:46:06.329Z,22.10
2023-05-20T13:48:33.586Z,22.10
2023-05-20T13:51:07.381Z,22.10
2023-05-20T13:53:42.745Z,22.10
2023-05-20T13:56:12.413Z,22.10
2023-05-20T13:58:44.048Z,22.04
2023-05-20T14:01:16.923Z,22.01
2023-05-20T14:03:46.355Z,22.00
2023-05-20T14:06:18.883Z,21.95
2023-05-20T14:08:50.621Z,21.90
2023-05-20T14:11:22.485Z,21.86
2023-05-20T14:13:54.887Z,21.77
2023-05-20T14:16:21.901Z,21.75
2023-05-20T14:18:48.857Z,21.69
2023-05-20T14:21:19.418Z,21.66
2023-05-20T14:23:51.117Z,21.62
2023-05-20T14:26:18.016Z,21.53
2023-05-20T14:28:49.353Z,21.55
2023-05-20T14:31:23.278Z,21.53
2023-05-20T14:33:55.212Z,21.48
2023-05-20T14:36:24.596Z,21.40
2023-05-20T14:38:53.876Z,21.42
2023-05-20T14:41:26.235Z,21.37
2023-05-20T14:43:53.133Z,21.36
2023-05-20T14:46:22.529Z,21.33
2023-05-20T14:48:53.870Z,21.32
2023-05-20T14:51:20.747Z,21.30
2023-05-20T14:53:54.358Z,21.25
2023-05-20T14:56:23.866Z,21.27
2023-05-20T14:58:55.378Z,21.25
2023-05-20T15:01:22.335Z,21.23
2023-05-20T15:03:49.254Z,21.18
2023-05-20T15:06:18.473Z,21.20
2023-05-20T15:08:50.266Z,21.13
2023-05-20T15:11:24.179Z,21.18
2023-05-20T15:13:55.672Z,21.14
2023-05-20T15:16:25.090Z,21.07
2023-05-20T15:18:54.136Z,21.06
2023-05-20T15:21:21.680Z,21.10
2023-05-20T15:23:55.867Z,21.10
2023-05-20T15:26:22.710Z,21.11
2023-05-20T15:28:57.058Z,21.00
2023-05-20T15:31:26.342Z,21.06
2023-05-20T15:33:56.172Z,21.03
2023-05-20T15:36:28.075Z,21.09
2023-05-20T15:38:54.948Z,21.07
2023-05-20T15:41:28.614Z,20.96
2023-05-20T15:44:02.795Z,21.02
2023-05-20T15:46:31.922Z,20.99
2023-05-20T15:49:01.171Z,20.99
2023-05-20T15:51:32.339Z,20.97
2023-05-20T15:54:01.783Z,20.89
2023-05-20T15:56:36.351Z,20.90
2023-05-20T15:59:03.220Z,20.85
2023-05-20T16:01:30.445Z,20.87
2023-05-20T16:03:58.450Z,20.86
2023-05-20T16:06:32.775Z,20.82
2023-05-20T16:09:04.607Z,20.83
2023-05-20T16:11:38.882Z,20.82
2023-05-20T16:14:10.498Z,20.86
2023-05-20T16:16:42.128Z,20.83
2023-05-20T16:19:16.074Z,20.83
2023-05-20T16:21:47.557Z,20.81
2023-05-20T16:24:15.269Z,20.81
2023-05-20T16:26:44.719Z,20.79
2023-05-20T16:29:11.818Z,20.78
2023-05-20T16:31:47.213Z,20.77
2023-05-20T16:34:18.628Z,20.73
2023-05-20T16:36:47.944Z,20.65
2023-05-20T16:39:19.687Z,20.68
2023-05-20T16:41:54.413Z,20.61
2023-05-20T16:44:28.504Z,20.63
2023-05-20T16:46:57.800Z,20.57
2023-05-20T16:49:24.637Z,20.58
2023-05-20T16:51:54.001Z,20.58
2023-05-20T16:54:25.753Z,20.45
2023-05-20T16:56:57.408Z,20.49
2023-05-20T16:59:31.390Z,20.52
2023-05-20T17:02:03.340Z,20.51
2023-05-20T17:04:30.257Z,20.46
2023-05-20T17:07:01.900Z,20.45
2023-05-20T17:09:33.262Z,20.42
2023-05-20T17:12:07.222Z,20.40
2023-05-20T17:14:37.201Z,20.37
2023-05-20T17:17:06.696Z,20.34
2023-05-20T17:19:36.700Z,20.29
2023-05-20T17:22:05.850Z,20.24
2023-05-20T17:24:42.162Z,20.25
2023-05-20T17:27:11.656Z,20.23
2023-05-20T17:29:43.095Z,20.22
2023-05-20T17:32:12.592Z,20.20
2023-05-20T17:34:41.844Z,20.20
2023-05-20T17:37:14.184Z,20.17
2023-05-20T17:39:44.793Z,20.11
2023-05-20T17:42:13.842Z,20.17
2023-05-20T17:44:45.685Z,20.16
2023-05-20T17:47:15.607Z,20.12
2023-05-20T17:49:47.389Z,20.08
2023-05-20T17:52:19.126Z,20.12
2023-05-20T17:54:48.302Z,20.10
2023-05-20T17:57:20.452Z,20.07
2023-05-20T17:59:47.422Z,20.08
2023-05-20T18:02:19.400Z,20.07
2023-05-20T18:04:48.501Z,20.02
2023-05-20T18:07:20.743Z,20.01
2023-05-20T18:09:52.113Z,20.01
2023-05-20T18:12:23.601Z,19.98
2023-05-20T18:14:52.829Z,19.91
2023-05-20T18:17:22.134Z,19.94
2023-05-20T18:19:51.760Z,19.90
2023-05-20T18:22:18.716Z,19.82
2023-05-20T18:24:52.934Z,19.85
2023-05-20T18:27:22.088Z,19.84
2023-05-20T18:29:53.811Z,19.83
2023-05-20T18:32:28.600Z,19.76
2023-05-20T18:34:58.018Z,19.72
2023-05-20T18:37:33.192Z,19.69
2023-05-20T18:40:06.681Z,19.64
2023-05-20T18:42:36.042Z,19.61
2023-05-20T18:45:08.390Z,19.60
2023-05-20T18:47:39.801Z,19.50
2023-05-20T18:50:14.076Z,19.51
2023-05-20T18:52:50.754Z,19.42
2023-05-20T18:55:19.873Z,19.46
2023-05-20T18:57:53.679Z,19.42
2023-05-20T19:00:25.506Z,19.38
2023-05-20T19:02:58.202Z,19.32
2023-05-20T19:05:30.329Z,19.34
2023-05-20T19:08:02.840Z,19.33
2023-05-20T19:10:32.002Z,19.24
2023-05-20T19:13:01.619Z,19.27
2023-05-20T19:15:32.771Z,19.23
2023-05-20T19:18:07.818Z,19.14
2023-05-20T19:20:44.152Z,19.19
2023-05-20T19:23:10.990Z,19.17
2023-05-20T19:25:42.300Z,19.10
2023-05-20T19:28:16.583Z,19.04
2023-05-20T19:30:43.577Z,19.04
2023-05-20T19:33:11.086Z,19.02
2023-05-20T19:35:38.231Z,19.00
2023-05-20T19:38:12.641Z,18.94
2023-05-20T19:40:43.912Z,18.88
2023-05-20T19:43:13.523Z,18.94
2023-05-20T19:45:42.787Z,18.93
2023-05-20T19:48:14.166Z,18.86
2023-05-20T19:50:46.161Z,18.90
2023-05-20T19:53:17.570Z,18.85
2023-05-20T19:55:46.870Z,18.85
2023-05-20T19:58:16.201Z,18.80
2023-05-20T20:00:45.492Z,18.78
2023-05-20T20:03:17.140Z,18.75
2023-05-20T20:05:46.624Z,18.74
2023-05-20T20:08:13.722Z,18.67
2023-05-20T20:10:42.917Z,18.58
2023-05-20T20:13:09.992Z,18.56
2023-05-20T20:15:41.855Z,18.42
2023-05-20T20:18:08.784Z,18.54
2023-05-20T20:20:40.113Z,18.43
2023-05-20T20:23:08.285Z,18.46
2023-05-20T20:25:39.048Z,18.39
2023-05-20T20:28:11.446Z,18.43
2023-05-20T20:30:40.719Z,18.35
2023-05-20T20:33:10.350Z,18.38
2023-05-20T20:35:42.192Z,18.26
2023-05-20T20:38:16.332Z,18.33
2023-05-20T20:40:46.170Z,18.29
2023-05-20T20:43:20.559Z,18.28
2023-05-20T20:45:51.068Z,18.12
2023-05-20T20:48:20.281Z,18.04
2023-05-20T20:50:48.322Z,18.02
2023-05-20T20:53:17.184Z,18.18
2023-05-20T20:55:47.652Z,18.18
2023-05-20T20:58:15.619Z,18.15
2023-05-20T21:00:48.917Z,18.13
2023-05-20T21:03:16.194Z,18.08
2023-05-20T21:05:43.157Z,18.04
2023-05-20T21:08:10.620Z,17.98
2023-05-20T21:10:38.436Z,17.98
2023-05-20T21:13:08.025Z,17.91
2023-05-20T21:15:35.169Z,17.81
2023-05-20T21:18:02.426Z,17.75
2023-05-20T21:20:29.692Z,17.74
2023-05-20T21:22:56.656Z,17.81
2023-05-20T21:25:23.552Z,17.81
2023-05-20T21:27:50.503Z,17.77
2023-05-20T21:30:20.328Z,17.81
2023-05-20T21:32:47.336Z,17.78
2023-05-20T21:35:16.640Z,17.51
2023-05-20T21:37:46.220Z,17.60
2023-05-20T21:40:13.734Z,17.61
2023-05-20T21:42:43.489Z,17.57
2023-05-20T21:45:11.094Z,17.45
2023-05-20T21:47:38.228Z,17.44
2023-05-20T21:50:05.761Z,17.50
2023-05-20T21:52:32.757Z,17.43
2023-05-20T21:54:59.726Z,17.49
2023-05-20T21:57:26.730Z,17.41
2023-05-20T21:59:53.586Z,17.35
2023-05-20T22:02:23.133Z,17.28
2023-05-20T22:04:50.562Z,17.35
2023-05-20T22:07:22.328Z,17.28
2023-05-20T22:09:49.270Z,17.07
2023-05-20T22:12:16.164Z,17.31
2023-05-20T22:14:43.249Z,17.27
2023-05-20T22:17:10.775Z,17.31
2023-05-20T22:19:40.402Z,17.28
2023-05-20T22:22:10.068Z,17.21
2023-05-20T22:24:37.119Z,17.25
2023-05-20T22:27:04.718Z,17.18
2023-05-20T22:29:33.666Z,17.19
2023-05-20T22:32:00.902Z,17.08
2023-05-20T22:34:33.059Z,17.18
2023-05-20T22:37:02.433Z,17.12
2023-05-20T22:39:29.388Z,16.87
2023-05-20T22:41:56.349Z,17.14
2023-05-20T22:44:23.275Z,16.77
2023-05-20T22:46:50.140Z,17.07
2023-05-20T22:49:19.385Z,17.01
2023-05-20T22:51:46.248Z,16.97
2023-05-20T22:54:13.250Z,17.00
2023-05-20T22:56:42.362Z,16.86
2023-05-20T22:59:09.291Z,16.97
2023-05-20T23:01:36.736Z,16.95
2023-05-20T23:04:03.865Z,16.75
2023-05-20T23:06:30.707Z,16.77
2023-05-20T23:08:57.555Z,16.81
2023-05-20T23:11:26.702Z,16.84
2023-05-20T23:13:55.881Z,16.81
2023-05-20T23:16:26.451Z,16.78
2023-05-20T23:18:56.345Z,16.79
2023-05-20T23:21:25.702Z,16.72
2023-05-20T23:23:52.876Z,16.67
2023-05-20T23:26:19.818Z,16.78
2023-05-20T23:28:48.047Z,16.79
2023-05-20T23:31:16.026Z,16.62
2023-05-20T23:33:43.421Z,16.76
2023-05-20T23:36:12.870Z,16.68
2023-05-20T23:38:40.170Z,16.72
2023-05-20T23:41:06.991Z,16.72
2023-05-20T23:43:34.050Z,16.64
2023-05-20T23:46:01.045Z,16.69
2023-05-20T23:48:27.891Z,16.67
2023-05-20T23:50:54.714Z,16.57
2023-05-20T23:53:23.838Z,16.52
2023-05-20T23:55:50.762Z,16.59
2023-05-20T23:58:17.636Z,16.47
